Time;durP1;ratioP1;P1;durP2;ratioP2;P2;SDS_P1;SDS_P2;PMS_P1;PMS_P2;Temp;Humidity;BMP_temperature;BMP_pressure;BME280_temperature;BME280_humidity;BME280_pressure;Samples;Min_cycle;Max_cycle;Signal;HPM_P1;HPM_P2
2022/09/17 00:02:18;;;;;;;18.33;17.53;;;11.50;88.80;;;;;;5059508;28;20482;-72
2022/09/17 00:04:47;;;;;;;17.97;17.07;;;11.50;88.70;;;;;;5065046;28;20488;-72
2022/09/17 00:07:17;;;;;;;17.77;17.07;;;11.60;88.70;;;;;;5062833;28;20457;-71
2022/09/17 00:09:44;;;;;;;17.87;17.07;;;11.60;88.50;;;;;;5064114;28;20456;-72
2022/09/17 00:12:12;;;;;;;17.40;16.63;;;11.50;88.00;;;;;;5065210;28;20566;-72
2022/09/17 00:14:40;;;;;;;18.20;17.50;;;11.50;87.90;;;;;;5063091;28;20458;-72
2022/09/17 00:17:07;;;;;;;18.93;18.13;;;11.50;87.80;;;;;;5068603;28;20461;-72
2022/09/17 00:19:34;;;;;;;18.97;17.90;;;11.40;88.10;;;;;;5064125;28;20454;-71
2022/09/17 00:22:01;;;;;;;18.20;17.30;;;11.40;88.00;;;;;;5060531;28;20535;-72
2022/09/17 00:24:28;;;;;;;16.70;16.00;;;11.40;87.80;;;;;;5059575;28;20485;-72
2022/09/17 00:26:55;;;;;;;17.77;16.97;;;11.40;87.70;;;;;;5068513;28;20815;-72
2022/09/17 00:29:23;;;;;;;17.00;16.30;;;11.40;87.80;;;;;;5060319;28;20454;-71
2022/09/17 00:31:50;;;;;;;18.83;17.83;;;11.40;87.80;;;;;;5069887;28;20477;-71
2022/09/17 00:34:17;;;;;;;19.00;18.10;;;11.40;87.90;;;;;;5065046;28;21172;-71
2022/09/17 00:36:43;;;;;;;18.80;17.90;;;11.50;87.50;;;;;;5060990;28;20453;-71
2022/09/17 00:39:14;;;;;;;17.30;16.60;;;11.50;87.50;;;;;;5059048;28;20457;-73
2022/09/17 00:41:41;;;;;;;18.90;18.00;;;11.50;87.70;;;;;;5064917;28;20466;-73
2022/09/17 00:44:43;;;;;;;17.80;17.10;;;11.50;87.30;;;;;;5066326;28;21024;-73
2022/09/17 00:47:16;;;;;;;17.80;17.10;;;11.60;86.90;;;;;;5064897;28;20464;-73
2022/09/17 00:49:44;;;;;;;18.20;17.40;;;11.60;86.90;;;;;;5068554;28;20471;-73
2022/09/17 00:52:14;;;;;;;16.83;16.13;;;11.60;87.10;;;;;;5067012;28;20482;-73
2022/09/17 00:54:46;;;;;;;17.40;16.40;;;11.50;87.30;;;;;;5065044;28;20450;-73
2022/09/17 00:57:13;;;;;;;17.40;16.60;;;11.50;87.40;;;;;;5065988;28;20946;-73
2022/09/17 00:59:40;;;;;;;18.20;17.30;;;11.60;87.30;;;;;;5068931;28;20452;-73
2022/09/17 01:02:09;;;;;;;16.80;16.03;;;11.60;87.20;;;;;;5075536;28;20485;-73
2022/09/17 01:04:35;;;;;;;17.07;16.30;;;11.50;87.30;;;;;;5066499;28;20474;-73
2022/09/17 01:07:08;;;;;;;18.80;18.00;;;11.40;87.30;;;;;;5068956;28;20469;-74
2022/09/17 01:09:43;;;;;;;19.00;18.10;;;11.40;87.60;;;;;;5057813;28;20481;-73
2022/09/17 01:12:35;;;;;;;17.70;17.00;;;11.40;87.50;;;;;;5081678;28;20486;-72
2022/09/17 01:15:12;;;;;;;17.03;16.33;;;11.40;87.80;;;;;;5070477;28;20939;-72
2022/09/17 01:17:52;;;;;;;16.90;16.20;;;11.30;87.80;;;;;;5067847;28;20528;-72
2022/09/17 01:21:06;;;;;;;16.97;16.27;;;11.20;88.30;;;;;;5068130;28;20469;-71
2022/09/17 01:24:01;;;;;;;17.53;16.40;;;11.20;88.90;;;;;;4978118;28;20488;-71
2022/09/17 01:26:55;;;;;;;16.63;15.83;;;11.10;89.20;;;;;;4977837;28;20496;-72
2022/09/17 01:29:38;;;;;;;17.00;16.07;;;11.00;89.60;;;;;;5030874;28;20465;-72
2022/09/17 01:32:13;;;;;;;15.80;15.20;;;11.00;90.10;;;;;;5057623;28;20477;-72
2022/09/17 01:34:51;;;;;;;15.60;14.80;;;10.90;90.40;;;;;;5064129;28;20458;-72
2022/09/17 01:37:28;;;;;;;15.13;14.43;;;11.00;90.30;;;;;;5058724;28;20461;-71
2022/09/17 01:40:04;;;;;;;14.30;13.60;;;11.00;90.20;;;;;;5059102;28;21197;-72
2022/09/17 01:42:37;;;;;;;14.73;13.90;;;10.90;90.10;;;;;;5059743;28;20506;-71
2022/09/17 01:45:10;;;;;;;15.27;14.57;;;11.00;89.60;;;;;;5067328;28;20484;-70
2022/09/17 01:47:42;;;;;;;15.47;14.77;;;11.00;89.70;;;;;;5062394;28;20483;-74
2022/09/17 01:50:12;;;;;;;15.00;14.30;;;11.00;89.90;;;;;;5058710;28;20458;-74
2022/09/17 01:52:41;;;;;;;16.70;16.00;;;11.00;89.80;;;;;;5061545;28;20472;-73
2022/09/17 01:55:12;;;;;;;15.40;14.60;;;11.10;89.30;;;;;;5061233;28;20454;-74
2022/09/17 01:57:44;;;;;;;16.50;15.70;;;11.20;89.00;;;;;;5055621;28;20836;-73
2022/09/17 02:00:16;;;;;;;16.10;15.20;;;11.20;88.30;;;;;;5057324;28;21034;-73
2022/09/17 02:02:48;;;;;;;15.50;14.90;;;11.20;88.30;;;;;;5061121;28;20477;-74
2022/09/17 02:05:20;;;;;;;15.70;15.00;;;11.20;88.00;;;;;;5062922;28;20481;-73
2022/09/17 02:07:52;;;;;;;16.00;15.20;;;11.20;88.00;;;;;;5058764;28;20580;-73
2022/09/17 02:10:22;;;;;;;14.90;14.20;;;11.20;88.20;;;;;;5059448;28;20466;-75
2022/09/17 02:12:56;;;;;;;15.00;14.30;;;11.20;88.40;;;;;;5061850;28;20893;-72
2022/09/17 02:15:29;;;;;;;15.50;14.80;;;11.30;87.90;;;;;;5065869;28;20977;-73
2022/09/17 02:18:01;;;;;;;16.00;15.20;;;11.30;87.70;;;;;;5069007;28;20458;-73
2022/09/17 02:20:39;;;;;;;17.37;16.47;;;11.30;87.70;;;;;;5064939;28;20479;-73
2022/09/17 02:23:12;;;;;;;16.40;15.60;;;11.20;87.80;;;;;;5058372;28;20477;-74
2022/09/17 02:25:47;;;;;;;17.20;16.30;;;11.20;87.90;;;;;;5067330;28;20470;-73
2022/09/17 02:28:22;;;;;;;15.17;14.43;;;11.20;88.00;;;;;;5068128;28;20457;-75
2022/09/17 02:30:49;;;;;;;15.63;15.00;;;11.20;88.10;;;;;;5058972;28;20486;-73
2022/09/17 02:33:19;;;;;;;16.40;15.40;;;11.20;87.90;;;;;;5062045;28;20486;-73
2022/09/17 02:35:47;;;;;;;15.43;14.73;;;11.30;87.80;;;;;;5062985;28;20454;-73
2022/09/17 02:38:21;;;;;;;16.90;15.90;;;11.30;87.90;;;;;;5070111;28;20457;-73
2022/09/17 02:40:53;;;;;;;17.20;15.70;;;11.30;87.80;;;;;;5063295;28;20468;-71
2022/09/17 02:43:28;;;;;;;18.07;17.27;;;11.30;88.00;;;;;;5059064;28;20560;-71
2022/09/17 02:46:17;;;;;;;16.87;16.17;;;11.30;87.80;;;;;;5063665;28;20519;-72
2022/09/17 02:49:11;;;;;;;18.30;17.30;;;11.30;88.00;;;;;;5065477;28;20484;-73
2022/09/17 02:51:50;;;;;;;16.70;15.90;;;11.40;87.70;;;;;;5061545;28;20462;-73
2022/09/17 02:54:24;;;;;;;17.30;16.30;;;11.40;87.60;;;;;;5060633;28;20457;-73
2022/09/17 02:57:01;;;;;;;16.93;15.80;;;11.30;87.70;;;;;;5064193;28;20462;-73
2022/09/17 02:59:33;;;;;;;17.70;16.80;;;11.30;87.70;;;;;;5068997;28;20840;-74
2022/09/17 03:02:05;;;;;;;17.63;16.73;;;11.30;87.80;;;;;;5064477;28;20469;-73
2022/09/17 03:04:34;;;;;;;17.57;16.77;;;11.20;88.10;;;;;;5063229;28;20486;-73
2022/09/17 03:07:07;;;;;;;17.20;16.33;;;11.30;87.80;;;;;;5062526;28;20458;-76
2022/09/17 03:09:34;;;;;;;16.93;15.90;;;11.20;88.00;;;;;;5056371;28;20520;-76
2022/09/17 03:12:02;;;;;;;17.80;17.00;;;11.20;88.20;;;;;;5064071;28;20856;-73
2022/09/17 03:14:29;;;;;;;20.10;19.13;;;11.10;88.30;;;;;;5064510;28;20448;-74
2022/09/17 03:16:56;;;;;;;16.67;15.77;;;11.10;88.30;;;;;;5064799;28;20461;-72
2022/09/17 03:19:23;;;;;;;16.20;15.37;;;11.00;88.40;;;;;;5067940;28;21090;-73
2022/09/17 03:21:51;;;;;;;14.87;14.23;;;10.90;88.70;;;;;;5063328;28;20461;-76
2022/09/17 03:24:18;;;;;;;17.60;16.80;;;11.00;88.70;;;;;;5065598;28;20459;-73
2022/09/17 03:26:46;;;;;;;15.67;14.87;;;10.90;88.70;;;;;;5064367;28;20471;-73
2022/09/17 03:29:13;;;;;;;15.70;14.90;;;10.80;89.10;;;;;;5063601;28;20461;-73
2022/09/17 03:31:40;;;;;;;17.33;16.40;;;10.90;89.00;;;;;;5061022;28;20460;-73
2022/09/17 03:34:07;;;;;;;14.40;13.50;;;10.80;89.10;;;;;;5061371;28;20482;-73
2022/09/17 03:36:34;;;;;;;17.10;16.13;;;10.90;88.80;;;;;;5062772;28;20456;-73
2022/09/17 03:39:02;;;;;;;26.90;25.50;;;10.80;88.60;;;;;;5063676;28;20468;-73
2022/09/17 03:41:29;;;;;;;16.50;15.60;;;10.80;88.80;;;;;;5063521;28;20452;-73
2022/09/17 03:43:56;;;;;;;20.23;19.03;;;10.80;88.70;;;;;;5063338;28;20481;-73
2022/09/17 03:46:23;;;;;;;15.50;14.70;;;10.80;88.70;;;;;;5064073;28;20841;-73
2022/09/17 03:48:50;;;;;;;16.90;14.53;;;10.80;88.90;;;;;;5065402;28;20467;-72
2022/09/17 03:51:17;;;;;;;15.73;14.63;;;10.80;88.70;;;;;;5068438;28;20825;-73
2022/09/17 03:53:43;;;;;;;17.30;16.27;;;10.70;88.60;;;;;;5065068;28;20576;-72
2022/09/17 03:56:12;;;;;;;15.90;15.13;;;10.60;89.00;;;;;;5068527;28;20465;-72
2022/09/17 03:58:39;;;;;;;17.80;16.90;;;10.60;89.20;;;;;;5070667;28;20489;-71
2022/09/17 04:01:06;;;;;;;20.63;19.57;;;10.50;89.40;;;;;;5072982;28;20455;-72
2022/09/17 04:03:33;;;;;;;21.30;20.30;;;10.50;89.20;;;;;;5066270;28;20485;-72
2022/09/17 04:06:00;;;;;;;16.07;15.17;;;10.50;89.30;;;;;;5065580;28;21026;-72
2022/09/17 04:08:27;;;;;;;19.43;18.07;;;10.60;89.10;;;;;;5068746;28;20473;-72
2022/09/17 04:10:54;;;;;;;22.53;21.43;;;10.60;89.30;;;;;;5065601;28;20462;-72
2022/09/17 04:13:22;;;;;;;16.50;15.60;;;10.60;89.20;;;;;;5068486;28;20484;-72
2022/09/17 04:15:50;;;;;;;17.03;16.10;;;10.60;89.10;;;;;;5069989;28;20453;-73
2022/09/17 04:18:17;;;;;;;15.93;15.03;;;10.60;88.90;;;;;;5072106;28;20477;-73
2022/09/17 04:20:44;;;;;;;17.90;17.00;;;10.70;88.70;;;;;;5065293;28;21055;-75
2022/09/17 04:23:11;;;;;;;32.10;30.60;;;10.70;88.30;;;;;;5059126;28;20484;-71
2022/09/17 04:25:39;;;;;;;16.40;15.30;;;10.70;88.00;;;;;;5062915;28;20543;-71
2022/09/17 04:28:06;;;;;;;22.97;21.63;;;10.70;87.80;;;;;;5068788;28;20471;-72
2022/09/17 04:30:34;;;;;;;17.73;16.37;;;10.70;87.90;;;;;;5067335;28;20809;-71
2022/09/17 04:33:01;;;;;;;23.30;22.17;;;10.60;87.90;;;;;;5060090;28;20516;-72
2022/09/17 04:35:28;;;;;;;28.37;26.77;;;10.50;88.10;;;;;;5056265;28;20491;-72
2022/09/17 04:37:56;;;;;;;16.67;15.73;;;10.50;87.70;;;;;;5062629;28;20454;-72
2022/09/17 04:40:23;;;;;;;16.70;15.40;;;10.50;87.60;;;;;;5068776;28;20462;-71
2022/09/17 04:42:53;;;;;;;19.80;18.80;;;10.40;87.60;;;;;;5065783;28;20470;-72
2022/09/17 04:45:19;;;;;;;18.30;17.40;;;10.40;88.00;;;;;;5066228;28;20993;-71
2022/09/17 04:47:49;;;;;;;17.73;16.93;;;10.40;88.20;;;;;;5066772;28;20477;-72
2022/09/17 04:50:17;;;;;;;18.93;17.80;;;10.40;88.00;;;;;;5071950;28;20464;-72
2022/09/17 04:52:44;;;;;;;22.27;21.00;;;10.40;87.90;;;;;;5064053;28;20476;-71
2022/09/17 04:55:12;;;;;;;21.97;20.67;;;10.50;87.70;;;;;;5066618;28;20980;-72
2022/09/17 04:57:39;;;;;;;17.17;15.97;;;10.50;87.40;;;;;;5065999;28;20483;-72
2022/09/17 05:00:08;;;;;;;27.93;26.67;;;10.60;87.20;;;;;;5068879;28;20459;-71
2022/09/17 05:02:35;;;;;;;30.23;28.63;;;10.50;87.30;;;;;;5077017;28;20487;-72
2022/09/17 05:05:04;;;;;;;38.40;36.40;;;10.60;87.30;;;;;;5067977;28;21175;-71
2022/09/17 05:07:31;;;;;;;17.67;16.37;;;10.60;86.60;;;;;;5067337;28;20999;-72
2022/09/17 05:09:58;;;;;;;21.93;20.60;;;10.70;86.40;;;;;;5068619;28;20994;-72
2022/09/17 05:12:25;;;;;;;17.93;16.93;;;10.80;86.20;;;;;;5063597;28;20484;-72
2022/09/17 05:14:52;;;;;;;37.10;35.10;;;10.70;86.10;;;;;;5069853;28;20953;-74
2022/09/17 05:17:19;;;;;;;32.50;30.20;;;10.80;86.00;;;;;;5071236;28;20461;-73
2022/09/17 05:19:46;;;;;;;22.83;21.73;;;10.80;85.40;;;;;;5073325;28;21495;-73
2022/09/17 05:22:14;;;;;;;19.37;18.37;;;10.80;85.50;;;;;;5067037;28;20492;-74
2022/09/17 05:24:41;;;;;;;25.87;24.57;;;10.80;85.60;;;;;;5064390;28;20816;-73
2022/09/17 05:27:09;;;;;;;29.43;27.83;;;10.90;85.80;;;;;;5066784;28;21156;-73
2022/09/17 05:29:36;;;;;;;18.53;17.30;;;10.80;85.90;;;;;;5059996;28;20459;-73
2022/09/17 05:32:03;;;;;;;39.07;37.00;;;10.80;86.20;;;;;;5066383;28;20461;-72
2022/09/17 05:34:30;;;;;;;27.30;26.10;;;10.90;85.60;;;;;;5057748;28;20474;-72
2022/09/17 05:36:57;;;;;;;21.40;20.40;;;10.90;85.50;;;;;;5064921;28;20837;-71
2022/09/17 05:39:25;;;;;;;26.27;24.63;;;10.90;85.60;;;;;;5065491;28;20468;-71
2022/09/17 05:41:52;;;;;;;19.93;18.83;;;11.00;85.00;;;;;;5064225;28;20463;-71
2022/09/17 05:44:19;;;;;;;20.70;19.60;;;11.00;85.00;;;;;;5065218;28;20446;-72
2022/09/17 05:46:47;;;;;;;19.93;19.03;;;11.00;85.00;;;;;;5066100;28;20476;-72
2022/09/17 05:49:14;;;;;;;19.67;18.00;;;11.00;84.80;;;;;;5066929;28;20462;-73
2022/09/17 05:51:41;;;;;;;28.67;27.20;;;11.00;84.70;;;;;;5066079;28;20463;-73
2022/09/17 05:54:08;;;;;;;21.13;19.90;;;11.00;85.00;;;;;;5068675;28;20498;-73
2022/09/17 05:56:36;;;;;;;29.43;27.90;;;11.10;84.80;;;;;;5068561;28;20457;-73
2022/09/17 05:59:03;;;;;;;31.03;29.60;;;11.20;84.50;;;;;;5062993;28;20461;-74
2022/09/17 06:01:30;;;;;;;25.83;24.37;;;11.30;84.40;;;;;;5066650;28;20461;-73
2022/09/17 06:03:57;;;;;;;28.03;26.60;;;11.40;84.20;;;;;;5061713;28;20478;-73
2022/09/17 06:06:28;;;;;;;28.50;26.80;;;11.50;83.70;;;;;;5060067;28;20488;-73
2022/09/17 06:08:55;;;;;;;25.30;23.77;;;11.60;83.30;;;;;;5059597;28;20475;-75
2022/09/17 06:11:21;;;;;;;20.20;18.93;;;11.70;82.70;;;;;;5059663;28;20565;-75
2022/09/17 06:13:53;;;;;;;28.83;27.53;;;11.80;82.80;;;;;;5059784;28;20465;-74
2022/09/17 06:16:20;;;;;;;35.97;33.90;;;11.90;82.70;;;;;;5064323;28;20835;-76
2022/09/17 06:18:48;;;;;;;21.87;20.80;;;12.00;82.20;;;;;;5065751;28;20471;-74
2022/09/17 06:21:17;;;;;;;24.40;22.83;;;11.90;82.40;;;;;;5064132;28;21217;-74
2022/09/17 06:23:44;;;;;;;21.53;20.43;;;12.10;81.70;;;;;;5064919;28;20594;-74
2022/09/17 06:26:12;;;;;;;31.73;29.90;;;12.00;81.30;;;;;;5058014;28;20490;-74
2022/09/17 06:28:39;;;;;;;28.07;26.67;;;12.00;81.70;;;;;;5063904;28;20466;-74
2022/09/17 06:31:09;;;;;;;33.10;31.20;;;12.00;81.70;;;;;;5058319;28;20546;-74
2022/09/17 06:33:36;;;;;;;28.73;27.43;;;12.10;81.60;;;;;;5059153;28;20852;-73
2022/09/17 06:36:06;;;;;;;25.63;24.13;;;12.10;81.00;;;;;;5058071;28;20465;-72
2022/09/17 06:38:35;;;;;;;22.93;21.87;;;12.00;81.40;;;;;;5059569;28;20968;-76
2022/09/17 06:41:03;;;;;;;26.40;24.93;;;12.00;81.60;;;;;;5061672;28;20462;-74
2022/09/17 06:43:30;;;;;;;24.50;23.30;;;12.20;81.50;;;;;;5061434;28;20490;-73
2022/09/17 06:45:59;;;;;;;21.07;19.97;;;12.30;79.90;;;;;;5060685;28;20473;-74
2022/09/17 06:48:28;;;;;;;20.90;19.80;;;12.40;79.90;;;;;;5058627;28;20484;-75
2022/09/17 06:50:56;;;;;;;22.50;21.40;;;12.40;79.20;;;;;;5058360;28;20469;-74
2022/09/17 06:53:24;;;;;;;31.60;29.53;;;12.50;79.00;;;;;;5056581;28;20474;-73
2022/09/17 06:55:51;;;;;;;22.80;21.60;;;12.50;78.50;;;;;;5060975;28;20453;-72
2022/09/17 06:58:18;;;;;;;30.10;28.50;;;12.50;78.90;;;;;;5060176;28;20461;-73
2022/09/17 07:00:45;;;;;;;40.43;38.23;;;12.70;79.20;;;;;;5061665;28;20464;-73
2022/09/17 07:03:12;;;;;;;38.33;36.37;;;12.70;78.70;;;;;;5068836;28;20476;-74
2022/09/17 07:05:42;;;;;;;26.20;24.60;;;12.70;77.80;;;;;;5067056;28;20454;-73
2022/09/17 07:08:10;;;;;;;21.97;20.60;;;12.50;78.70;;;;;;5067805;28;20472;-72
2022/09/17 07:10:37;;;;;;;24.70;23.60;;;12.60;78.20;;;;;;5066039;28;20528;-73
2022/09/17 07:13:04;;;;;;;28.65;27.17;;;12.40;78.70;;;;;;5064630;28;20463;-73
2022/09/17 07:15:31;;;;;;;32.40;30.83;;;12.30;80.10;;;;;;5063954;28;20203;-72
2022/09/17 07:17:58;;;;;;;23.13;22.03;;;12.10;80.50;;;;;;5066152;28;20466;-72
2022/09/17 07:20:25;;;;;;;20.70;19.60;;;11.90;81.50;;;;;;5066421;28;20490;-72
2022/09/17 07:22:57;;;;;;;24.53;23.33;;;11.90;82.40;;;;;;5069113;28;20595;-72
2022/09/17 07:25:25;;;;;;;23.30;21.90;;;11.90;82.60;;;;;;5064240;28;20566;-72
2022/09/17 07:27:52;;;;;;;33.43;31.83;;;11.80;84.10;;;;;;5080491;28;20820;-72
2022/09/17 07:30:19;;;;;;;24.37;23.13;;;11.70;84.60;;;;;;5064817;28;20470;-74
2022/09/17 07:32:45;;;;;;;21.97;20.97;;;11.70;84.50;;;;;;5065099;28;20486;-72
2022/09/17 07:35:13;;;;;;;25.80;24.60;;;11.80;84.90;;;;;;5064385;28;20466;-73
2022/09/17 07:37:40;;;;;;;25.23;24.10;;;11.80;85.00;;;;;;5067221;28;20468;-73
2022/09/17 07:40:09;;;;;;;31.43;30.03;;;11.80;85.80;;;;;;5066221;28;20459;-75
2022/09/17 07:42:36;;;;;;;23.80;22.40;;;11.90;85.20;;;;;;5061547;28;20861;-73
2022/09/17 07:45:02;;;;;;;24.57;23.27;;;11.90;84.90;;;;;;5053728;28;20899;-73
2022/09/17 07:47:29;;;;;;;29.30;27.60;;;11.90;85.30;;;;;;5065348;28;20477;-74
2022/09/17 07:49:56;;;;;;;25.37;23.97;;;11.90;85.80;;;;;;5068196;28;20454;-73
2022/09/17 07:52:23;;;;;;;20.13;19.03;;;11.80;85.70;;;;;;5067626;28;20492;-74
2022/09/17 07:54:50;;;;;;;21.13;19.77;;;11.70;86.50;;;;;;5066026;28;20472;-72
2022/09/17 07:57:18;;;;;;;20.07;18.93;;;11.60;87.10;;;;;;5063380;28;20460;-72
2022/09/17 07:59:45;;;;;;;35.37;33.67;;;11.60;87.70;;;;;;5062415;28;20952;-73
2022/09/17 08:02:13;;;;;;;32.70;31.27;;;11.70;87.40;;;;;;5062390;28;20477;-74
2022/09/17 08:04:43;;;;;;;30.30;28.80;;;11.70;87.60;;;;;;5067892;28;20462;-71
2022/09/17 08:07:12;;;;;;;19.53;18.63;;;11.90;88.10;;;;;;5062892;28;20482;-70
2022/09/17 08:09:39;;;;;;;48.00;44.60;;;12.20;87.60;;;;;;5064425;28;20470;-71
2022/09/17 08:12:07;;;;;;;49.13;45.03;;;12.30;86.70;;;;;;5065053;28;20485;-69
2022/09/17 08:14:35;;;;;;;50.77;45.60;;;12.40;86.70;;;;;;5062910;28;20453;-69
2022/09/17 08:17:02;;;;;;;38.33;35.40;;;12.50;86.50;;;;;;5063711;28;20442;-70
2022/09/17 08:19:31;;;;;;;18.80;17.80;;;12.40;85.10;;;;;;5060795;28;20451;-69
2022/09/17 08:21:58;;;;;;;23.07;21.70;;;12.40;84.20;;;;;;5057092;28;20971;-69
2022/09/17 08:24:26;;;;;;;28.83;27.43;;;12.30;85.10;;;;;;5057322;28;20450;-69
2022/09/17 08:26:53;;;;;;;22.80;21.40;;;12.20;85.00;;;;;;5054274;28;21021;-69
2022/09/17 08:29:20;;;;;;;21.50;20.30;;;12.30;84.70;;;;;;5057295;28;20548;-69
2022/09/17 08:31:48;;;;;;;26.47;25.23;;;12.40;83.90;;;;;;5057755;28;20469;-69
2022/09/17 08:34:17;;;;;;;41.23;39.30;;;12.40;83.70;;;;;;5057493;28;20458;-71
2022/09/17 08:36:44;;;;;;;26.27;24.57;;;12.40;84.80;;;;;;5056180;28;21089;-73
2022/09/17 08:39:11;;;;;;;43.37;41.33;;;12.60;84.00;;;;;;5061851;28;20704;-72
2022/09/17 08:41:55;;;;;;;21.77;20.43;;;12.80;83.00;;;;;;5069730;28;20464;-72
2022/09/17 08:44:25;;;;;;;37.30;35.30;;;12.80;82.70;;;;;;5062846;28;20450;-71
2022/09/17 08:47:00;;;;;;;27.10;25.43;;;13.00;83.10;;;;;;5069945;28;20469;-71
2022/09/17 08:49:34;;;;;;;43.67;41.60;;;13.10;83.00;;;;;;5067476;28;20532;-75
2022/09/17 08:52:22;;;;;;;22.27;21.07;;;13.20;81.00;;;;;;5082435;28;20549;-71
2022/09/17 08:55:00;;;;;;;28.13;26.30;;;13.30;82.10;;;;;;5063401;28;20459;-71
2022/09/17 08:57:36;;;;;;;30.10;28.33;;;13.50;80.90;;;;;;5066486;28;20455;-69
2022/09/17 09:00:09;;;;;;;24.30;22.77;;;13.60;79.00;;;;;;5065217;28;20459;-70
2022/09/17 09:03:02;;;;;;;38.57;36.40;;;13.40;78.50;;;;;;5068411;28;20492;-71
2022/09/17 09:05:32;;;;;;;32.27;30.50;;;13.40;80.10;;;;;;5069243;28;20472;-70
2022/09/17 09:08:06;;;;;;;25.27;23.77;;;13.70;80.30;;;;;;5059018;28;20555;-72
2022/09/17 09:10:44;;;;;;;32.43;30.20;;;13.90;79.60;;;;;;5065561;28;20468;-71
2022/09/17 09:13:16;;;;;;;34.77;32.77;;;14.10;79.00;;;;;;5067864;28;21005;-72
2022/09/17 09:15:45;;;;;;;24.53;22.57;;;14.40;78.80;;;;;;5070443;28;20466;-73
2022/09/17 09:18:19;;;;;;;25.13;23.40;;;14.40;75.60;;;;;;5059864;28;20450;-75
2022/09/17 09:20:52;;;;;;;28.90;27.13;;;14.50;76.30;;;;;;5065816;28;20463;-73
2022/09/17 09:23:24;;;;;;;34.73;32.57;;;14.50;76.40;;;;;;5072022;28;20482;-72
2022/09/17 09:25:55;;;;;;;33.40;31.20;;;14.60;76.50;;;;;;5058058;28;20473;-73
2022/09/17 09:28:57;;;;;;;25.77;23.90;;;14.50;74.70;;;;;;5062622;28;20486;-72
2022/09/17 09:31:37;;;;;;;25.70;24.30;;;14.50;75.40;;;;;;5031484;28;20501;-73
2022/09/17 09:34:05;;;;;;;43.67;40.70;;;14.30;73.30;;;;;;5060161;28;20485;-72
2022/09/17 09:36:33;;;;;;;32.90;30.97;;;14.20;74.20;;;;;;5058657;28;20455;-72
2022/09/17 09:39:04;;;;;;;31.60;29.30;;;14.00;74.90;;;;;;5067696;28;20525;-74
2022/09/17 09:41:35;;;;;;;26.60;25.03;;;14.20;75.80;;;;;;5057179;28;20481;-71
2022/09/17 09:44:05;;;;;;;40.20;37.40;;;14.40;76.40;;;;;;5059736;28;21092;-76
2022/09/17 09:46:56;;;;;;;31.53;29.47;;;14.30;72.70;;;;;;5060654;28;20478;-73
2022/09/17 09:49:37;;;;;;;52.47;49.90;;;14.30;74.80;;;;;;5056249;28;20863;-72
2022/09/17 09:52:18;;;;;;;28.37;26.40;;;14.20;74.30;;;;;;5060345;28;21114;-76
2022/09/17 09:54:59;;;;;;;35.13;33.00;;;14.10;75.60;;;;;;5063494;28;20562;-73
2022/09/17 09:57:37;;;;;;;31.07;28.90;;;14.00;76.20;;;;;;5055427;28;20516;-73
2022/09/17 10:00:27;;;;;;;39.03;36.70;;;13.90;75.50;;;;;;5054907;28;20958;-72
2022/09/17 10:02:59;;;;;;;37.83;35.80;;;13.90;76.50;;;;;;5057765;28;20533;-74
2022/09/17 10:05:29;;;;;;;32.63;29.70;;;13.90;75.60;;;;;;5056458;28;20459;-77
2022/09/17 10:07:57;;;;;;;26.97;25.50;;;14.00;76.10;;;;;;5053672;28;20481;-74
2022/09/17 10:10:24;;;;;;;23.90;22.47;;;14.20;74.60;;;;;;5054690;28;20467;-73
2022/09/17 10:13:06;;;;;;;28.67;26.63;;;14.30;74.00;;;;;;5053308;28;20496;-72
2022/09/17 10:15:33;;;;;;;31.27;29.57;;;14.60;74.40;;;;;;5057973;28;20476;-72
2022/09/17 10:18:13;;;;;;;26.93;25.53;;;14.70;73.10;;;;;;5058453;28;20539;-72
2022/09/17 10:20:51;;;;;;;31.10;29.40;;;14.70;72.40;;;;;;5055701;28;20874;-72
2022/09/17 10:23:19;;;;;;;29.67;27.97;;;14.70;72.40;;;;;;5056508;28;20494;-72
2022/09/17 10:25:47;;;;;;;31.53;29.83;;;14.30;70.80;;;;;;5054421;28;20976;-71
2022/09/17 10:28:35;;;;;;;28.10;26.67;;;14.20;72.00;;;;;;5058951;28;20485;-75
2022/09/17 10:31:07;;;;;;;33.93;31.87;;;14.40;72.00;;;;;;5056988;28;20462;-74
2022/09/17 10:33:35;;;;;;;33.33;31.53;;;14.40;71.50;;;;;;5057970;28;20518;-71
2022/09/17 10:36:06;;;;;;;32.10;30.50;;;14.60;71.50;;;;;;5054973;28;20458;-72
2022/09/17 10:38:36;;;;;;;27.07;25.17;;;14.50;68.40;;;;;;5057680;28;20560;-73
2022/09/17 10:41:12;;;;;;;30.10;28.53;;;14.20;70.40;;;;;;5059877;28;20526;-73
2022/09/17 10:43:40;;;;;;;30.63;28.93;;;14.40;71.00;;;;;;5056942;28;20516;-75
2022/09/17 10:46:10;;;;;;;35.93;34.00;;;14.40;71.00;;;;;;5059377;28;20493;-72
2022/09/17 10:48:43;;;;;;;28.47;27.03;;;14.70;69.90;;;;;;5062686;28;20478;-74
2022/09/17 10:51:19;;;;;;;31.17;29.47;;;14.90;69.00;;;;;;5062780;28;20453;-73
2022/09/17 10:54:15;;;;;;;28.57;26.97;;;15.10;68.70;;;;;;5067715;28;20535;-73
2022/09/17 10:56:48;;;;;;;29.40;27.80;;;15.30;68.40;;;;;;5069457;28;20537;-74
2022/09/17 10:59:42;;;;;;;34.30;32.67;;;15.50;68.30;;;;;;5055942;28;20459;-72
2022/09/17 11:02:43;;;;;;;35.87;33.70;;;15.60;66.00;;;;;;5070152;28;20478;-72
2022/09/17 11:05:38;;;;;;;32.87;31.17;;;15.40;66.00;;;;;;5054636;28;20454;-73
2022/09/17 11:08:11;;;;;;;29.43;27.27;;;15.60;65.30;;;;;;5061687;28;20497;-73
2022/09/17 11:10:45;;;;;;;25.50;24.20;;;15.70;64.50;;;;;;5063622;28;20458;-73
2022/09/17 11:13:23;;;;;;;38.47;36.57;;;15.70;65.50;;;;;;5057766;28;20475;-73
2022/09/17 11:16:04;;;;;;;30.33;28.40;;;15.70;64.40;;;;;;5056357;28;20850;-72
2022/09/17 11:18:39;;;;;;;25.50;24.30;;;15.60;64.90;;;;;;5055229;28;20454;-73
2022/09/17 11:21:27;;;;;;;42.87;40.50;;;15.60;64.60;;;;;;5056394;28;20773;-73
2022/09/17 11:24:18;;;;;;;28.57;27.07;;;15.70;64.60;;;;;;5052692;28;20474;-70
2022/09/17 11:26:53;;;;;;;29.23;27.73;;;16.00;64.40;;;;;;5060500;28;20563;-70
2022/09/17 11:29:40;;;;;;;31.77;30.30;;;16.10;63.40;;;;;;5061486;28;20455;-69
2022/09/17 11:32:22;;;;;;;33.73;32.03;;;16.20;62.30;;;;;;5056505;28;20840;-70
2022/09/17 11:34:58;;;;;;;38.53;36.53;;;16.30;62.70;;;;;;5054351;28;20473;-73
2022/09/17 11:37:30;;;;;;;26.37;25.17;;;16.20;60.00;;;;;;5053763;28;20820;-73
2022/09/17 11:40:02;;;;;;;42.27;40.07;;;15.60;61.00;;;;;;5056549;28;20465;-73
2022/09/17 11:42:33;;;;;;;25.67;24.57;;;15.80;61.50;;;;;;5061654;28;20673;-73
2022/09/17 11:45:04;;;;;;;30.50;28.67;;;16.10;61.10;;;;;;5062826;28;20477;-73
2022/09/17 11:47:36;;;;;;;43.23;40.93;;;16.10;61.10;;;;;;5062567;28;20501;-73
2022/09/17 11:50:10;;;;;;;30.23;28.80;;;16.20;62.10;;;;;;5056681;28;20461;-73
2022/09/17 11:52:41;;;;;;;31.63;29.87;;;16.50;60.80;;;;;;5057709;28;20539;-73
2022/09/17 11:55:21;;;;;;;38.03;36.10;;;16.60;59.40;;;;;;5060886;28;20944;-73
2022/09/17 11:57:50;;;;;;;34.00;32.30;;;16.40;58.50;;;;;;5065376;28;20545;-73
2022/09/17 12:00:21;;;;;;;29.97;28.47;;;16.50;59.50;;;;;;5063804;28;20828;-70
2022/09/17 12:02:53;;;;;;;38.67;36.57;;;16.90;58.80;;;;;;5063081;28;20480;-71
2022/09/17 12:05:23;;;;;;;27.80;26.03;;;17.20;57.20;;;;;;5060039;28;20473;-71
2022/09/17 12:07:56;;;;;;;33.70;30.80;;;17.00;58.20;;;;;;5061735;28;20734;-71
2022/09/17 12:10:49;;;;;;;33.10;31.50;;;17.00;58.20;;;;;;5061102;28;20465;-71
2022/09/17 12:13:24;;;;;;;27.23;25.70;;;16.60;58.10;;;;;;5059952;28;20482;-70
2022/09/17 12:15:57;;;;;;;37.37;35.47;;;16.50;59.90;;;;;;5065652;28;20456;-70
2022/09/17 12:18:37;;;;;;;36.17;34.33;;;15.90;60.90;;;;;;5067837;28;20453;-72
2022/09/17 12:21:08;;;;;;;29.30;27.90;;;15.40;63.50;;;;;;5066478;28;20462;-73
2022/09/17 12:23:41;;;;;;;43.80;41.40;;;15.20;64.50;;;;;;5068625;28;20482;-71
2022/09/17 12:26:22;;;;;;;28.17;26.47;;;15.40;63.80;;;;;;5061608;28;20467;-70
2022/09/17 12:28:55;;;;;;;27.03;25.10;;;15.30;63.00;;;;;;5061694;28;20553;-71
2022/09/17 12:31:31;;;;;;;45.37;42.57;;;15.20;64.50;;;;;;5066186;28;20454;-70
2022/09/17 12:34:07;;;;;;;32.30;30.70;;;15.30;64.10;;;;;;5069278;28;20843;-72
2022/09/17 12:36:47;;;;;;;29.13;27.53;;;15.20;63.70;;;;;;5066480;28;20445;-72
2022/09/17 12:39:39;;;;;;;31.70;30.10;;;15.10;65.30;;;;;;5070145;28;20450;-70
2022/09/17 12:42:18;;;;;;;32.27;30.00;;;15.50;65.60;;;;;;5056418;28;20497;-71
2022/09/17 12:45:14;;;;;;;27.90;26.40;;;15.80;62.50;;;;;;5063676;28;20454;-72
2022/09/17 12:48:15;;;;;;;41.50;39.60;;;15.70;62.60;;;;;;5070888;28;20478;-70
2022/09/17 12:50:54;;;;;;;34.30;32.73;;;15.10;66.40;;;;;;5031465;28;20966;-73
2022/09/17 12:53:28;;;;;;;33.77;32.10;;;14.70;68.00;;;;;;5065374;28;20503;-73